Sparta, WI

6:16 AM CST on December 17, 2017 (GMT -0600)
Sparta-Fort McCoy

Weather History for KCMY - February, 2014

Change the Weather History Date:

Thursday, February 27, 2014

  Actual Average Record
Temperature  
Mean Temperature -6 °F -  
Max Temperature 5 °F 37 °F 60 °F (2016)
Min Temperature -18 °F 17 °F -19 °F (2015)
Degree Days  
Heating Degree Days 72    
Moisture  
Dew Point -19 °F    
Average Humidity 50    
Maximum Humidity 76    
Minimum Humidity 31    
Precipitation  
Precipitation 0.00 in - - ()
Sea Level Pressure  
Sea Level Pressure 30.07 in    
Wind  
Wind Speed 10 mph (WNW)    
Max Wind Speed 24 mph    
Max Gust Speed 37 mph    
Visibility 10 miles    
Events      
Averages and records for this station are not official NWS values.
T = Trace of Precipitation, MM = Missing Value Source: NWS Daily Summary

Daily Weather History Graph

Daily Weather History Graph

Search for Another Location

Airport or City:

Trip Planner

Search our weather history database for the weather conditions in past years. The results will help you decide how hot, cold, wet, or windy it might be!

Date:

Astronomy

Feb. 27, 2014 Rise Set
Actual Time 6:43 AM CST 5:48 PM CST
Civil Twilight 6:14 AM CST 6:17 PM CST
Nautical Twilight 5:40 AM CST 6:51 PM CST
Astronomical Twilight 5:07 AM CST 7:24 PM CST
Moon 5:18 AM CST (2/27) 4:12 PM CST (2/27)
Length of Visible Light 12h 03m
Length of Day
11h 05m
Waning Crescent, 4% of the Moon is Illuminated
Feb 27
Waning Crescent
Mar 1
New
Mar 8
First Quarter
Mar 16
Full
Mar 23
Last Quarter

Hourly Weather History & Observations

Time (CST) Temp. Windchill Dew Point Humidity Pressure Visibility Wind Dir Wind Speed Gust Speed Precip Events Conditions
12:15 AM 5.7 °F -14.8 °F -13.4 °F 41% 29.76 in 4.0 mi WNW 20.7 mph 32.2 mph N/A   Haze
12:35 AM 4.8 °F -14.4 °F -13.5 °F 43% 29.78 in 10.0 mi WNW 17.3 mph 28.8 mph N/A   Clear
12:55 AM 3.7 °F -18.8 °F -13.2 °F 45% 29.79 in 10.0 mi NW 24.2 mph 36.8 mph N/A   Clear
1:15 AM 2.8 °F -15.7 °F -13.7 °F 46% 29.82 in 10.0 mi WNW 15.0 mph 25.3 mph N/A   Clear
1:35 AM 1.8 °F -15.7 °F -13.7 °F 48% 29.83 in 10.0 mi NW 12.7 mph 25.3 mph N/A   Clear
1:55 AM 0.9 °F -16.0 °F -13.2 °F 52% 29.85 in 10.0 mi WNW 11.5 mph 26.5 mph N/A   Clear
2:15 AM -0.0 °F -19.4 °F -13.4 °F 54% 29.86 in 10.0 mi NW 15.0 mph - N/A   Clear
2:35 AM -0.8 °F -18.9 °F -13.7 °F 54% 29.87 in 10.0 mi WNW 12.7 mph 18.4 mph N/A   Clear
2:55 AM -1.5 °F -19.8 °F -14.1 °F 55% 29.89 in 10.0 mi WNW 12.7 mph 24.2 mph N/A   Clear
3:15 AM -2.2 °F -22.9 °F -15.2 °F 54% 29.90 in 10.0 mi WNW 16.1 mph 21.9 mph N/A   Clear
3:35 AM -2.9 °F -23.1 °F -15.5 °F 55% 29.91 in 10.0 mi WNW 15.0 mph 23.0 mph N/A   Clear
3:55 AM -3.6 °F -23.3 °F -15.7 °F 56% 29.93 in 10.0 mi WNW 13.8 mph 20.7 mph N/A   Clear
4:15 AM -4.2 °F -21.4 °F -16.1 °F 57% 29.95 in 10.0 mi NW 10.4 mph 17.3 mph N/A   Clear
4:35 AM -4.9 °F -23.2 °F -16.6 °F 57% 29.97 in 10.0 mi NW 11.5 mph 17.3 mph N/A   Clear
4:55 AM -5.3 °F -20.6 °F -17.1 °F 57% 29.98 in 10.0 mi NW 8.1 mph - N/A   Clear
5:15 AM -5.8 °F -22.4 °F -18.0 °F 56% 30.00 in 10.0 mi WNW 9.2 mph - N/A   Clear
5:35 AM -6.2 °F -21.7 °F -19.1 °F 54% 30.01 in 10.0 mi NW 8.1 mph 11.5 mph N/A   Clear
5:55 AM -6.7 °F -21.0 °F -19.3 °F 54% 30.02 in 10.0 mi NW 6.9 mph - N/A   Clear
6:15 AM -7.2 °F -21.7 °F -18.8 °F 57% 30.04 in 10.0 mi WNW 6.9 mph - N/A   Clear
6:35 AM -7.6 °F -25.7 °F -19.3 °F 57% 30.05 in 10.0 mi NW 10.4 mph - N/A   Clear
6:55 AM -8.0 °F -26.1 °F -20.2 °F 55% 30.06 in 10.0 mi NW 10.4 mph 18.4 mph N/A   Clear
7:15 AM -7.8 °F -25.9 °F -20.4 °F 54% 30.07 in 10.0 mi NW 10.4 mph - N/A   Clear
7:35 AM -7.6 °F -27.5 °F -20.7 °F 53% 30.08 in 10.0 mi NW 12.7 mph - N/A   Clear
7:55 AM -7.1 °F -23.9 °F -21.1 °F 51% 30.10 in 10.0 mi NNW 9.2 mph - N/A   Clear
8:15 AM -6.3 °F -25.0 °F -20.6 °F 50% 30.10 in 10.0 mi NNW 11.5 mph - N/A   Clear
8:35 AM -6.2 °F -26.5 °F -20.4 °F 50% 30.12 in 10.0 mi NW 13.8 mph 17.3 mph N/A   Clear
8:55 AM -5.8 °F -23.4 °F -20.4 °F 49% 30.13 in 10.0 mi NNW 10.4 mph - N/A   Clear
9:15 AM -5.1 °F -22.5 °F -20.0 °F 49% 30.14 in 10.0 mi WNW 10.4 mph - N/A   Clear
9:35 AM -5.1 °F -20.4 °F -20.4 °F 48% 30.14 in 10.0 mi WNW 8.1 mph - N/A   Clear
9:55 AM -4.0 °F -17.8 °F -19.5 °F 48% 30.15 in 10.0 mi NW 6.9 mph - N/A   Clear
10:15 AM -3.3 °F -13.7 °F -19.7 °F 46% 30.15 in 10.0 mi West 4.6 mph - N/A   Clear
10:35 AM -2.4 °F -12.7 °F -19.1 °F 45% 30.15 in 10.0 mi NNW 4.6 mph - N/A   Clear
10:55 AM -1.5 °F -13.3 °F -19.5 °F 42% 30.16 in 10.0 mi West 5.8 mph - N/A   Clear
11:15 AM -1.3 °F -14.5 °F -18.4 °F 44% 30.15 in 10.0 mi WNW 6.9 mph - N/A   Clear
11:35 AM -0.8 °F -12.5 °F -19.5 °F 41% 30.16 in 10.0 mi West 5.8 mph - N/A   Clear
11:55 AM 0.3 °F -12.6 °F -18.0 °F 42% 30.15 in 10.0 mi WNW 6.9 mph - N/A   Clear
12:15 PM 0.7 °F -12.1 °F -19.3 °F 39% 30.15 in 10.0 mi WNW 6.9 mph - N/A   Clear
12:30 PM 1.4 °F -11.3 °F -19.3 °F 37% 30.15 in 10.0 mi WNW 6.9 mph - N/A   Clear
12:55 PM 2.1 °F -12.6 °F -19.7 °F 36% 30.15 in 10.0 mi WNW 9.2 mph - N/A   Clear
1:15 PM 2.8 °F -10.7 °F -19.5 °F 35% 30.15 in 10.0 mi WNW 8.1 mph - N/A   Clear
1:35 PM 3.0 °F -8.0 °F -20.0 °F 34% 30.14 in 10.0 mi West 5.8 mph - N/A   Clear
1:55 PM 2.8 °F -8.2 °F -19.3 °F 35% 30.14 in 10.0 mi West 5.8 mph - N/A   Clear
2:15 PM 3.0 °F -4.4 °F -20.0 °F 34% 30.14 in 10.0 mi West 3.5 mph - N/A   Clear
2:30 PM 3.2 °F -10.3 °F -19.8 °F 34% 30.14 in 10.0 mi WSW 8.1 mph - N/A   Clear
2:50 PM 3.7 °F -7.1 °F -19.7 °F 33% 30.14 in 10.0 mi West 5.8 mph - N/A   Clear
3:15 PM 4.5 °F -7.6 °F -19.8 °F 32% 30.13 in 10.0 mi West 6.9 mph - N/A   Clear
3:35 PM 4.1 °F -8.0 °F -19.3 °F 33% 30.13 in 10.0 mi West 6.9 mph - N/A   Clear
3:55 PM 4.1 °F - -20.9 °F 31% 30.13 in 10.0 mi Calm Calm - N/A   Clear
4:15 PM 3.9 °F -5.3 °F -20.6 °F 31% 30.13 in 10.0 mi WSW 4.6 mph - N/A   Clear
4:35 PM 3.7 °F -5.5 °F -21.3 °F 31% 30.13 in 10.0 mi West 4.6 mph - N/A   Clear
4:50 PM 3.2 °F -4.2 °F -21.1 °F 32% 30.13 in 10.0 mi West 3.5 mph - N/A   Clear
5:15 PM 2.7 °F -4.8 °F -20.9 °F 33% 30.13 in 10.0 mi WSW 3.5 mph - N/A   Clear
5:35 PM 1.9 °F -5.6 °F -21.6 °F 33% 30.13 in 10.0 mi SW 3.5 mph - N/A   Clear
5:55 PM 0.7 °F - -21.6 °F 34% 30.14 in 10.0 mi Calm Calm - N/A   Clear
6:15 PM 0.1 °F - -22.0 °F 35% 30.14 in 10.0 mi Calm Calm - N/A   Clear
6:35 PM -3.5 °F - -17.5 °F 51% 30.14 in 10.0 mi Calm Calm - N/A   Clear
6:55 PM -4.9 °F - -17.1 °F 56% 30.14 in 10.0 mi Calm Calm - N/A   Clear
7:15 PM -6.0 °F - -16.4 °F 61% 30.14 in 10.0 mi Calm Calm - N/A   Clear
7:35 PM -7.8 °F - -18.6 °F 59% 30.14 in 10.0 mi Calm Calm - N/A   Clear
7:55 PM -8.9 °F - -18.6 °F 62% 30.14 in 10.0 mi Calm Calm - N/A   Clear
8:15 PM -10.3 °F - -19.3 °F 65% 30.15 in 10.0 mi Calm Calm - N/A   Clear
8:35 PM -11.2 °F - -19.7 °F 66% 30.15 in 10.0 mi Calm Calm - N/A   Clear
8:55 PM -11.4 °F - -19.3 °F 68% 30.15 in 10.0 mi Calm Calm - N/A   Clear
9:15 PM -13.2 °F - -20.7 °F 69% 30.15 in 10.0 mi Calm Calm - N/A   Clear
9:35 PM -14.1 °F - -21.1 °F 71% 30.15 in 10.0 mi Calm Calm - N/A   Clear
9:55 PM -14.8 °F - -21.6 °F 71% 30.15 in 10.0 mi Calm Calm - N/A   Clear
10:20 PM -15.7 °F - -22.4 °F 72% 30.15 in 10.0 mi Calm Calm - N/A   Clear
10:35 PM -16.2 °F - -23.3 °F 71% 30.14 in 10.0 mi Calm Calm - N/A   Clear
10:55 PM -17.0 °F - -23.6 °F 72% 30.14 in 10.0 mi Calm Calm - N/A   Clear
11:15 PM -17.7 °F - -24.0 °F 73% 30.14 in 10.0 mi Calm Calm - N/A   Clear
11:35 PM -18.0 °F - -23.6 °F 76% 30.14 in 10.0 mi Calm Calm - N/A   Clear
11:55 PM -18.4 °F - -24.3 °F 74% 30.14 in 10.0 mi Calm Calm - N/A   Clear